Time;durP1;ratioP1;P1;durP2;ratioP2;P2;SDS_P1;SDS_P2;PMS_P1;PMS_P2;Temp;Humidity;BMP_temperature;BMP_pressure;BME280_temperature;BME280_humidity;BME280_pressure;Samples;Min_cycle;Max_cycle;Signal;HPM_P1;HPM_P2
2021/05/04 00:01:39;;;;;;;1.40;0.60;;;;;;;;;;5018911;28;20033;-82
2021/05/04 00:04:05;;;;;;;1.20;0.63;;;;;;;;;;5019137;28;20521;-82
2021/05/04 00:06:31;;;;;;;1.45;0.85;;;;;;;;;;5019051;28;20060;-83
2021/05/04 00:08:57;;;;;;;1.80;0.65;;;;;;;;;;5019004;28;20128;-83
2021/05/04 00:11:23;;;;;;;1.77;0.60;;;;;;;;;;5019567;28;20116;-82
2021/05/04 00:13:48;;;;;;;1.08;0.60;;;;;;;;;;5018280;28;20037;-83
2021/05/04 00:16:15;;;;;;;2.80;1.63;;;;;;;;;;5018774;28;20112;-82
2021/05/04 00:18:40;;;;;;;1.23;0.57;;;;;;;;;;5002634;28;20033;-82
2021/05/04 00:21:06;;;;;;;1.35;0.70;;;;;;;;;;5002386;28;20027;-82
2021/05/04 00:23:31;;;;;;;0.90;0.60;;;;;;;;;;5035111;28;20037;-83
2021/05/04 00:25:57;;;;;;;1.15;0.60;;;;;;;;;;5019063;28;20112;-83
2021/05/04 00:28:22;;;;;;;1.50;0.70;;;;;;;;;;5021782;28;20064;-83
2021/05/04 00:30:48;;;;;;;2.85;1.08;;;;;;;;;;5038501;28;20039;-82
2021/05/04 00:33:13;;;;;;;1.10;0.50;;;;;;;;;;5038231;28;20037;-82
2021/05/04 00:35:38;;;;;;;1.27;0.75;;;;;;;;;;5022546;28;20414;-82
2021/05/04 00:38:05;;;;;;;0.95;0.50;;;;;;;;;;5018750;28;20063;-82
2021/05/04 00:40:31;;;;;;;1.95;0.60;;;;;;;;;;5002210;28;20029;-82
2021/05/04 00:42:57;;;;;;;1.52;0.60;;;;;;;;;;5013901;28;20043;-82
2021/05/04 00:45:24;;;;;;;2.25;0.63;;;;;;;;;;5034414;28;20406;-82
2021/05/04 00:47:50;;;;;;;2.72;0.90;;;;;;;;;;5002090;28;20029;-82
2021/05/04 00:50:16;;;;;;;0.80;0.57;;;;;;;;;;5002151;28;20043;-83
2021/05/04 00:52:42;;;;;;;1.38;0.50;;;;;;;;;;5018023;28;20045;-82
2021/05/04 00:55:08;;;;;;;0.90;0.47;;;;;;;;;;5018117;28;20048;-82
2021/05/04 00:57:34;;;;;;;1.20;0.60;;;;;;;;;;5034169;28;20040;-83
2021/05/04 01:00:04;;;;;;;2.25;0.80;;;;;;;;;;5001570;28;20025;-82
2021/05/04 01:02:31;;;;;;;1.33;0.60;;;;;;;;;;5001533;28;20037;-82
2021/05/04 01:04:56;;;;;;;2.05;0.60;;;;;;;;;;5034406;28;20076;-83
2021/05/04 01:07:22;;;;;;;1.50;0.68;;;;;;;;;;5017742;28;20049;-82
2021/05/04 01:09:48;;;;;;;1.40;0.50;;;;;;;;;;5031493;28;20106;-84
2021/05/04 01:12:14;;;;;;;1.77;0.43;;;;;;;;;;5017162;28;20115;-84
2021/05/04 01:14:40;;;;;;;1.92;0.60;;;;;;;;;;5018248;28;20040;-85
2021/05/04 01:17:06;;;;;;;2.83;0.82;;;;;;;;;;5018141;28;20033;-84
2021/05/04 01:19:31;;;;;;;0.88;0.40;;;;;;;;;;5034563;28;20032;-83
2021/05/04 01:21:58;;;;;;;1.65;0.47;;;;;;;;;;5010533;28;20037;-84
2021/05/04 01:24:23;;;;;;;0.82;0.32;;;;;;;;;;5033404;28;20041;-84
2021/05/04 01:26:51;;;;;;;2.00;0.43;;;;;;;;;;5017783;28;20044;-84
2021/05/04 01:29:16;;;;;;;1.40;0.50;;;;;;;;;;5017881;28;20033;-84
2021/05/04 01:31:44;;;;;;;1.42;0.50;;;;;;;;;;5034324;28;20503;-84
2021/05/04 01:34:12;;;;;;;2.72;0.70;;;;;;;;;;5001652;28;20020;-84
2021/05/04 01:36:38;;;;;;;1.10;0.57;;;;;;;;;;5017967;28;20139;-84
2021/05/04 01:39:07;;;;;;;4.55;0.85;;;;;;;;;;5002753;28;20033;-85
2021/05/04 01:41:34;;;;;;;2.63;0.60;;;;;;;;;;5000820;28;20147;-84
2021/05/04 01:44:03;;;;;;;2.80;0.75;;;;;;;;;;5004271;28;20079;-85
2021/05/04 01:46:33;;;;;;;1.48;0.47;;;;;;;;;;5037206;28;20050;-85
2021/05/04 01:49:01;;;;;;;2.28;0.55;;;;;;;;;;5018979;28;20033;-87
2021/05/04 01:51:28;;;;;;;0.90;0.30;;;;;;;;;;5034786;28;20029;-90
2021/05/04 01:53:56;;;;;;;0.80;0.35;;;;;;;;;;5035156;28;20040;-90
2021/05/04 01:56:21;;;;;;;1.58;0.52;;;;;;;;;;5018358;28;20032;-91
2021/05/04 01:58:47;;;;;;;1.35;0.43;;;;;;;;;;5018647;28;20029;-92
2021/05/04 02:01:13;;;;;;;1.63;0.55;;;;;;;;;;5018689;28;20040;-92
2021/05/04 02:03:42;;;;;;;2.67;0.50;;;;;;;;;;5018981;28;20033;-92
2021/05/04 02:06:10;;;;;;;1.75;0.82;;;;;;;;;;5035263;28;20044;-92
2021/05/04 02:08:42;;;;;;;0.68;0.30;;;;;;;;;;5018931;28;20029;-90
2021/05/04 02:11:08;;;;;;;1.53;0.50;;;;;;;;;;5035046;28;20028;-92
2021/05/04 02:13:35;;;;;;;1.88;0.50;;;;;;;;;;5034443;28;20276;-92
2021/05/04 02:16:01;;;;;;;0.90;0.32;;;;;;;;;;5018657;28;20528;-91
2021/05/04 02:18:30;;;;;;;2.97;0.43;;;;;;;;;;5019119;28;20474;-91
2021/05/04 02:20:56;;;;;;;0.88;0.40;;;;;;;;;;5018343;28;20037;-92
2021/05/04 02:23:22;;;;;;;0.65;0.20;;;;;;;;;;5002521;28;20505;-91
2021/05/04 02:25:50;;;;;;;1.17;0.45;;;;;;;;;;5018228;28;20040;-93
2021/05/04 02:28:18;;;;;;;2.42;0.60;;;;;;;;;;5018837;28;20033;-92
2021/05/04 02:30:46;;;;;;;2.00;0.68;;;;;;;;;;5019003;28;20028;-92
2021/05/04 02:33:15;;;;;;;1.83;0.60;;;;;;;;;;5018414;28;20040;-92
2021/05/04 02:35:47;;;;;;;1.80;0.43;;;;;;;;;;5018928;28;20040;-91
2021/05/04 02:38:12;;;;;;;1.65;0.40;;;;;;;;;;5005996;28;20062;-92
2021/05/04 02:40:38;;;;;;;2.08;0.50;;;;;;;;;;5041158;28;20143;-92
2021/05/04 02:43:07;;;;;;;2.00;0.40;;;;;;;;;;5021278;28;20480;-91
2021/05/04 02:45:33;;;;;;;1.77;0.50;;;;;;;;;;5005957;28;20037;-91
2021/05/04 02:47:59;;;;;;;1.15;0.52;;;;;;;;;;5021938;28;20128;-91
2021/05/04 02:50:27;;;;;;;1.83;0.50;;;;;;;;;;5005345;28;20032;-90
2021/05/04 02:52:55;;;;;;;2.03;0.35;;;;;;;;;;5021825;28;20045;-90
2021/05/04 02:55:24;;;;;;;1.73;0.45;;;;;;;;;;5021765;28;20037;-91
2021/05/04 02:57:52;;;;;;;0.88;0.35;;;;;;;;;;5021977;28;20029;-89
2021/05/04 03:00:19;;;;;;;0.47;0.25;;;;;;;;;;5021811;28;20048;-89
2021/05/04 03:02:48;;;;;;;1.10;0.40;;;;;;;;;;5021981;28;20029;-88
2021/05/04 03:05:15;;;;;;;1.27;0.40;;;;;;;;;;5021594;28;20035;-88
2021/05/04 03:07:44;;;;;;;1.40;0.40;;;;;;;;;;5021598;28;20182;-87
2021/05/04 03:10:09;;;;;;;2.45;0.30;;;;;;;;;;5021790;28;20128;-88
2021/05/04 03:12:37;;;;;;;1.33;0.30;;;;;;;;;;5020909;28;20128;-87
2021/05/04 03:15:06;;;;;;;2.03;0.60;;;;;;;;;;5038100;28;20033;-87
2021/05/04 03:17:34;;;;;;;1.15;0.40;;;;;;;;;;5037601;28;20075;-87
2021/05/04 03:20:03;;;;;;;0.88;0.30;;;;;;;;;;5037653;28;20541;-87
2021/05/04 03:22:31;;;;;;;0.85;0.30;;;;;;;;;;5020626;28;20037;-86
2021/05/04 03:24:56;;;;;;;1.13;0.55;;;;;;;;;;5020639;28;20037;-87
2021/05/04 03:27:25;;;;;;;1.58;0.65;;;;;;;;;;5020709;28;20094;-86
2021/05/04 03:29:52;;;;;;;1.50;0.50;;;;;;;;;;5037159;28;20029;-86
2021/05/04 03:32:19;;;;;;;0.85;0.20;;;;;;;;;;5020560;28;20044;-86
2021/05/04 03:34:44;;;;;;;3.80;0.95;;;;;;;;;;5023935;28;20037;-85
2021/05/04 03:37:12;;;;;;;1.25;0.28;;;;;;;;;;5040076;28;20036;-85
2021/05/04 03:39:39;;;;;;;3.38;0.30;;;;;;;;;;5030177;28;20037;-85
2021/05/04 03:42:05;;;;;;;1.38;0.38;;;;;;;;;;5003837;28;20135;-86
2021/05/04 03:44:32;;;;;;;1.77;0.30;;;;;;;;;;5020161;28;20056;-86
2021/05/04 03:46:59;;;;;;;1.75;0.40;;;;;;;;;;5003901;28;20047;-86
2021/05/04 03:49:25;;;;;;;1.15;0.32;;;;;;;;;;5019612;28;20039;-85
2021/05/04 03:51:51;;;;;;;1.50;0.30;;;;;;;;;;5011141;28;20124;-86
2021/05/04 03:54:16;;;;;;;1.63;0.30;;;;;;;;;;5036192;28;20025;-84
2021/05/04 03:56:43;;;;;;;0.90;0.45;;;;;;;;;;5035763;28;20048;-84
2021/05/04 03:59:08;;;;;;;2.03;0.30;;;;;;;;;;5019789;28;20086;-84
2021/05/04 04:01:36;;;;;;;1.65;0.35;;;;;;;;;;5035536;28;20044;-84
2021/05/04 04:04:03;;;;;;;1.50;0.30;;;;;;;;;;5019622;28;20040;-83
2021/05/04 04:06:28;;;;;;;1.95;0.30;;;;;;;;;;5018951;28;20045;-83
2021/05/04 04:08:54;;;;;;;0.93;0.32;;;;;;;;;;5035604;28;20036;-83
2021/05/04 04:11:19;;;;;;;2.35;0.30;;;;;;;;;;5019559;28;20064;-84
2021/05/04 04:13:45;;;;;;;0.55;0.30;;;;;;;;;;5022496;28;20032;-83
2021/05/04 04:16:10;;;;;;;0.75;0.40;;;;;;;;;;5022521;28;20060;-83
2021/05/04 04:18:36;;;;;;;1.95;0.30;;;;;;;;;;5033073;28;20049;-83
2021/05/04 04:21:02;;;;;;;1.35;0.40;;;;;;;;;;5038239;28;20101;-83
2021/05/04 04:23:28;;;;;;;1.00;0.20;;;;;;;;;;5022171;28;20036;-83
2021/05/04 04:25:53;;;;;;;0.55;0.22;;;;;;;;;;5022113;28;20058;-83
2021/05/04 04:28:19;;;;;;;1.27;0.30;;;;;;;;;;5021740;28;20407;-83
2021/05/04 04:30:44;;;;;;;2.38;0.50;;;;;;;;;;5038749;28;20039;-83
2021/05/04 04:33:10;;;;;;;1.77;0.80;;;;;;;;;;5037670;28;20051;-83
2021/05/04 04:35:35;;;;;;;0.80;0.35;;;;;;;;;;5021524;28;20399;-83
2021/05/04 04:38:01;;;;;;;1.13;0.40;;;;;;;;;;5021960;28;20037;-83
2021/05/04 04:40:26;;;;;;;1.58;0.30;;;;;;;;;;5048573;28;20430;-83
2021/05/04 04:42:52;;;;;;;1.10;0.47;;;;;;;;;;5017789;28;20110;-83
2021/05/04 04:45:18;;;;;;;0.77;0.30;;;;;;;;;;5019327;28;20041;-83
2021/05/04 04:47:44;;;;;;;0.70;0.20;;;;;;;;;;5021711;28;20387;-83
2021/05/04 04:50:09;;;;;;;1.70;0.30;;;;;;;;;;5019907;28;20086;-83
2021/05/04 04:52:35;;;;;;;1.65;0.30;;;;;;;;;;5016200;28;20036;-83
2021/05/04 04:55:01;;;;;;;1.85;0.38;;;;;;;;;;5018470;28;20033;-83
2021/05/04 04:57:27;;;;;;;1.25;0.20;;;;;;;;;;5018278;28;20869;-83
2021/05/04 04:59:52;;;;;;;2.70;0.93;;;;;;;;;;5019058;28;20081;-83
2021/05/04 05:02:18;;;;;;;2.30;0.45;;;;;;;;;;5015979;28;20064;-85
2021/05/04 05:04:44;;;;;;;2.92;0.45;;;;;;;;;;5012134;28;20457;-81
2021/05/04 05:07:10;;;;;;;1.70;0.40;;;;;;;;;;5016307;28;20029;-81
2021/05/04 05:09:36;;;;;;;1.85;0.90;;;;;;;;;;5034544;28;20135;-84
2021/05/04 05:12:08;;;;;;;2.85;0.50;;;;;;;;;;5020284;28;20189;-82
2021/05/04 05:14:35;;;;;;;3.25;0.45;;;;;;;;;;5021344;28;20514;-82
2021/05/04 05:17:01;;;;;;;1.83;0.40;;;;;;;;;;5021518;28;20040;-81
2021/05/04 05:19:27;;;;;;;2.08;0.30;;;;;;;;;;5036761;28;20057;-81
2021/05/04 05:21:52;;;;;;;2.63;0.60;;;;;;;;;;5028641;28;20130;-83
2021/05/04 05:24:18;;;;;;;3.45;0.20;;;;;;;;;;5001426;28;20410;-81
2021/05/04 05:26:44;;;;;;;1.55;0.40;;;;;;;;;;5033992;28;20410;-82
2021/05/04 05:29:10;;;;;;;2.10;0.47;;;;;;;;;;5034148;28;20418;-82
2021/05/04 05:31:36;;;;;;;2.20;0.60;;;;;;;;;;5036850;28;20062;-83
2021/05/04 05:34:03;;;;;;;3.25;1.10;;;;;;;;;;5036453;28;20089;-83
2021/05/04 05:36:28;;;;;;;2.45;0.90;;;;;;;;;;5036710;28;20036;-82
2021/05/04 05:38:53;;;;;;;4.45;1.75;;;;;;;;;;5036625;28;20032;-83
2021/05/04 05:41:19;;;;;;;6.25;0.95;;;;;;;;;;5036091;28;20437;-83
2021/05/04 05:43:45;;;;;;;2.80;0.98;;;;;;;;;;5050892;28;20127;-83
2021/05/04 05:46:10;;;;;;;4.55;1.13;;;;;;;;;;5019906;28;20588;-82
2021/05/04 05:48:36;;;;;;;5.50;0.90;;;;;;;;;;5019681;28;20078;-80
2021/05/04 05:51:01;;;;;;;3.58;0.70;;;;;;;;;;5019723;28;20108;-81
2021/05/04 05:53:26;;;;;;;4.00;0.85;;;;;;;;;;5019998;28;20029;-81
2021/05/04 05:55:52;;;;;;;5.00;0.73;;;;;;;;;;5036118;28;20103;-81
2021/05/04 05:58:17;;;;;;;3.20;0.70;;;;;;;;;;5052751;28;20093;-80
2021/05/04 06:00:43;;;;;;;4.28;1.20;;;;;;;;;;5036218;28;20044;-84
2021/05/04 06:03:08;;;;;;;2.80;0.50;;;;;;;;;;5019525;28;20047;-84
2021/05/04 06:05:34;;;;;;;2.83;0.60;;;;;;;;;;5036335;28;20043;-85
2021/05/04 06:08:00;;;;;;;1.92;0.50;;;;;;;;;;5020479;28;20673;-84
2021/05/04 06:10:25;;;;;;;1.40;0.50;;;;;;;;;;5018567;28;20029;-86
2021/05/04 06:13:06;;;;;;;3.28;0.60;;;;;;;;;;5017900;28;20036;-80
2021/05/04 06:15:32;;;;;;;2.17;0.60;;;;;;;;;;5040464;28;20032;-84
2021/05/04 06:17:57;;;;;;;1.67;0.40;;;;;;;;;;5023913;28;20033;-82
2021/05/04 06:20:23;;;;;;;4.28;0.68;;;;;;;;;;5039034;28;20032;-82
2021/05/04 06:22:48;;;;;;;4.78;0.68;;;;;;;;;;5021971;28;20032;-82
2021/05/04 06:25:14;;;;;;;4.25;0.80;;;;;;;;;;5036469;28;20101;-82
2021/05/04 06:27:39;;;;;;;6.43;0.80;;;;;;;;;;5056125;28;20094;-78
2021/05/04 06:30:06;;;;;;;2.40;0.40;;;;;;;;;;5040133;28;20403;-80
2021/05/04 06:32:31;;;;;;;4.68;0.63;;;;;;;;;;5039721;28;20060;-80
2021/05/04 06:34:57;;;;;;;3.13;0.70;;;;;;;;;;5039455;28;20043;-80
2021/05/04 06:37:22;;;;;;;3.88;0.50;;;;;;;;;;5073123;28;20402;-81
2021/05/04 06:39:47;;;;;;;1.38;0.50;;;;;;;;;;5023565;28;20405;-80
2021/05/04 06:42:13;;;;;;;2.13;0.50;;;;;;;;;;5037846;28;20075;-79
2021/05/04 06:44:38;;;;;;;3.45;0.50;;;;;;;;;;5056542;28;20032;-76
2021/05/04 06:47:04;;;;;;;2.53;0.55;;;;;;;;;;5055610;28;20394;-77
2021/05/04 06:49:30;;;;;;;2.25;0.57;;;;;;;;;;5039165;28;20033;-77
2021/05/04 06:51:55;;;;;;;5.20;0.60;;;;;;;;;;5039525;28;20072;-77
2021/05/04 06:54:21;;;;;;;4.35;0.77;;;;;;;;;;5055442;28;20398;-77
2021/05/04 06:56:46;;;;;;;8.50;1.00;;;;;;;;;;5056655;28;20103;-79
2021/05/04 06:59:12;;;;;;;16.13;1.73;;;;;;;;;;5040000;28;20442;-79
2021/05/04 07:01:39;;;;;;;6.90;0.80;;;;;;;;;;5039566;28;20434;-78
2021/05/04 07:04:08;;;;;;;8.57;1.00;;;;;;;;;;5056652;28;20040;-78
2021/05/04 07:06:33;;;;;;;5.60;1.15;;;;;;;;;;5024002;28;20101;-79
2021/05/04 07:08:58;;;;;;;4.22;0.60;;;;;;;;;;5023528;28;20697;-78
2021/05/04 07:11:27;;;;;;;4.50;0.60;;;;;;;;;;5035002;28;20041;-78
2021/05/04 07:13:52;;;;;;;2.58;0.70;;;;;;;;;;5035689;28;20044;-78
2021/05/04 07:16:18;;;;;;;3.53;0.52;;;;;;;;;;5053290;28;20076;-78
2021/05/04 07:18:43;;;;;;;5.75;0.90;;;;;;;;;;5039353;28;20052;-79
2021/05/04 07:21:09;;;;;;;3.60;0.70;;;;;;;;;;5032866;28;20059;-78
2021/05/04 07:23:37;;;;;;;6.45;0.68;;;;;;;;;;5037589;28;20541;-79
2021/05/04 07:26:03;;;;;;;2.70;0.70;;;;;;;;;;5027621;28;20469;-79
2021/05/04 07:28:29;;;;;;;5.22;0.70;;;;;;;;;;5015578;28;20083;-79
2021/05/04 07:30:54;;;;;;;10.75;1.83;;;;;;;;;;5019634;28;20108;-78
2021/05/04 07:33:20;;;;;;;13.48;1.52;;;;;;;;;;5035589;28;20036;-79
2021/05/04 07:35:47;;;;;;;7.40;1.50;;;;;;;;;;5019901;28;20403;-79
2021/05/04 07:38:12;;;;;;;11.93;1.60;;;;;;;;;;5019853;28;20487;-80
2021/05/04 07:40:39;;;;;;;13.25;2.38;;;;;;;;;;5035790;28;20155;-79
2021/05/04 07:43:04;;;;;;;9.52;2.15;;;;;;;;;;5019068;28;20032;-79
2021/05/04 07:45:29;;;;;;;10.77;1.70;;;;;;;;;;5035755;28;20040;-80
2021/05/04 07:47:57;;;;;;;14.70;1.40;;;;;;;;;;5019142;28;20413;-79
2021/05/04 07:50:24;;;;;;;12.90;1.33;;;;;;;;;;5019632;28;20579;-79
2021/05/04 07:52:49;;;;;;;14.27;1.50;;;;;;;;;;5048007;28;20029;-80
2021/05/04 07:55:15;;;;;;;9.02;2.28;;;;;;;;;;5019000;28;20090;-80
2021/05/04 07:57:40;;;;;;;11.65;1.48;;;;;;;;;;5052323;28;20031;-80
2021/05/04 08:00:06;;;;;;;8.50;1.67;;;;;;;;;;5052270;28;20037;-80
2021/05/04 08:02:32;;;;;;;9.98;1.63;;;;;;;;;;5035106;28;20060;-79
2021/05/04 08:04:57;;;;;;;8.80;1.33;;;;;;;;;;5024267;28;20049;-79
2021/05/04 08:07:22;;;;;;;7.55;0.93;;;;;;;;;;5026616;28;20045;-81
2021/05/04 08:09:48;;;;;;;5.47;1.35;;;;;;;;;;5018416;28;20426;-80
2021/05/04 08:12:14;;;;;;;10.60;1.10;;;;;;;;;;5002132;28;20033;-80
2021/05/04 08:14:39;;;;;;;6.40;0.98;;;;;;;;;;5021472;28;20082;-80
2021/05/04 08:17:10;;;;;;;7.80;0.70;;;;;;;;;;5018476;28;20037;-80
2021/05/04 08:19:36;;;;;;;6.80;1.30;;;;;;;;;;5035187;28;20049;-80
2021/05/04 08:22:01;;;;;;;5.78;0.77;;;;;;;;;;5032776;28;20060;-80
2021/05/04 08:24:27;;;;;;;5.57;0.80;;;;;;;;;;5009330;28;20478;-79
2021/05/04 08:26:52;;;;;;;7.93;1.00;;;;;;;;;;5033475;28;20423;-79
2021/05/04 08:29:18;;;;;;;4.47;0.60;;;;;;;;;;5035622;28;20432;-79
2021/05/04 08:31:43;;;;;;;5.82;0.65;;;;;;;;;;5052318;28;20051;-79
2021/05/04 08:34:09;;;;;;;4.45;0.65;;;;;;;;;;5050888;28;20399;-79
2021/05/04 08:36:35;;;;;;;3.90;0.65;;;;;;;;;;5043765;28;20043;-79
2021/05/04 08:39:00;;;;;;;3.13;0.50;;;;;;;;;;5054900;28;20024;-79
2021/05/04 08:41:26;;;;;;;2.72;0.50;;;;;;;;;;5036969;28;20120;-78
2021/05/04 08:43:51;;;;;;;1.85;0.40;;;;;;;;;;5054755;28;20150;-78
2021/05/04 08:46:19;;;;;;;1.55;0.40;;;;;;;;;;5038119;28;20072;-78
2021/05/04 08:48:45;;;;;;;2.95;0.55;;;;;;;;;;5021969;28;20446;-81
2021/05/04 08:51:11;;;;;;;10.55;1.40;;;;;;;;;;5021763;28;20036;-78
2021/05/04 08:53:37;;;;;;;8.32;1.08;;;;;;;;;;5019018;28;20036;-78
2021/05/04 08:56:02;;;;;;;6.93;1.35;;;;;;;;;;5019292;28;20051;-77
2021/05/04 08:58:28;;;;;;;3.58;0.77;;;;;;;;;;5037638;28;20115;-77
2021/05/04 09:00:54;;;;;;;4.20;0.60;;;;;;;;;;5054600;28;20490;-78
2021/05/04 09:03:30;;;;;;;6.60;0.90;;;;;;;;;;5036793;28;20068;-78
2021/05/04 09:08:38;;;;;;;6.18;0.73;;;;;;;;;;5053248;28;20058;-78
2021/05/04 09:16:42;;;;;;;5.75;1.30;;;;;;;;;;5055802;28;20112;-77
2021/05/04 09:19:33;;;;;;;6.50;1.10;;;;;;;;;;5055258;28;20047;-77
2021/05/04 09:21:59;;;;;;;4.40;1.42;;;;;;;;;;5040650;28;20111;-78
2021/05/04 09:24:30;;;;;;;7.95;2.65;;;;;;;;;;5034177;28;20407;-80
2021/05/04 09:27:16;;;;;;;10.90;2.83;;;;;;;;;;5029892;28;20491;-79
2021/05/04 09:29:51;;;;;;;10.25;2.22;;;;;;;;;;5016887;28;20079;-78
2021/05/04 09:32:24;;;;;;;6.38;1.60;;;;;;;;;;5018572;28;20451;-80
2021/05/04 09:34:56;;;;;;;12.05;2.65;;;;;;;;;;5018667;28;20099;-79
2021/05/04 09:37:38;;;;;;;9.77;2.00;;;;;;;;;;5050716;28;20041;-79
2021/05/04 09:40:26;;;;;;;5.75;1.60;;;;;;;;;;5049769;28;20047;-78
2021/05/04 09:43:12;;;;;;;8.63;2.08;;;;;;;;;;5034535;28;20490;-77
2021/05/04 09:45:51;;;;;;;7.10;1.40;;;;;;;;;;5049670;28;20056;-76
2021/05/04 09:48:18;;;;;;;5.40;0.98;;;;;;;;;;5027435;28;20078;-79
2021/05/04 09:51:03;;;;;;;6.97;1.25;;;;;;;;;;5052721;28;20048;-79
2021/05/04 09:56:04;;;;;;;6.47;3.45;;;;;;;;;;5055036;28;20043;-78
2021/05/04 09:58:37;;;;;;;13.65;7.90;;;;;;;;;;5053584;28;20406;-80
2021/05/04 10:01:05;;;;;;;15.27;7.15;;;;;;;;;;5037316;28;20036;-79
2021/05/04 10:03:31;;;;;;;11.07;6.95;;;;;;;;;;5020030;28;20533;-79
2021/05/04 10:06:01;;;;;;;8.98;6.15;;;;;;;;;;5036657;28;20040;-79
2021/05/04 10:08:28;;;;;;;11.63;7.25;;;;;;;;;;5036977;28;20605;-79
2021/05/04 10:10:54;;;;;;;10.30;5.00;;;;;;;;;;5044906;28;20059;-80
2021/05/04 10:13:20;;;;;;;10.75;5.45;;;;;;;;;;5033311;28;20043;-79
2021/05/04 10:15:45;;;;;;;8.88;5.10;;;;;;;;;;5017411;28;20037;-79
2021/05/04 10:18:12;;;;;;;8.80;4.70;;;;;;;;;;5017434;28;20108;-78
2021/05/04 10:20:38;;;;;;;9.38;4.75;;;;;;;;;;5017200;28;20044;-79
2021/05/04 10:23:03;;;;;;;8.45;4.97;;;;;;;;;;5019705;28;20082;-79
2021/05/04 10:25:29;;;;;;;7.03;4.18;;;;;;;;;;5032351;28;20041;-78
2021/05/04 10:27:55;;;;;;;6.25;3.28;;;;;;;;;;5036984;28;20021;-79
2021/05/04 10:30:21;;;;;;;8.02;4.30;;;;;;;;;;5033516;28;20494;-79
2021/05/04 10:32:50;;;;;;;6.90;3.42;;;;;;;;;;5033043;28;20048;-79
2021/05/04 10:35:34;;;;;;;6.68;3.53;;;;;;;;;;5033167;28;20052;-77
2021/05/04 10:38:06;;;;;;;6.07;2.95;;;;;;;;;;5050929;28;20037;-78
2021/05/04 10:40:34;;;;;;;;;;;;;;;;;;5033403;28;20033;-79
2021/05/04 10:43:22;;;;;;;6.68;2.95;;;;;;;;;;5049204;28;19991;-79
2021/05/04 10:45:54;;;;;;;9.32;2.88;;;;;;;;;;5049436;28;20033;-79
2021/05/04 10:48:41;;;;;;;6.43;2.85;;;;;;;;;;5017661;28;20033;-79
2021/05/04 10:51:16;;;;;;;6.88;3.53;;;;;;;;;;5003140;28;20553;-78
2021/05/04 10:53:59;;;;;;;7.22;2.80;;;;;;;;;;5033633;28;20033;-77
2021/05/04 10:56:32;;;;;;;10.68;3.55;;;;;;;;;;5063736;28;20068;-78
2021/05/04 10:58:58;;;;;;;22.20;9.05;;;;;;;;;;5020645;28;20040;-78
2021/05/04 11:01:23;;;;;;;753.40;492.55;;;;;;;;;;5028829;28;20106;-78
2021/05/04 11:03:52;;;;;;;461.67;277.35;;;;;;;;;;5039970;28;20070;-77
2021/05/04 11:06:24;;;;;;;288.80;153.48;;;;;;;;;;5040115;28;20071;-77
2021/05/04 11:08:49;;;;;;;367.15;195.65;;;;;;;;;;5073350;28;20041;-77
2021/05/04 11:11:40;;;;;;;253.02;139.05;;;;;;;;;;5073749;28;20494;-77
2021/05/04 11:14:15;;;;;;;228.82;121.50;;;;;;;;;;5059489;28;20041;-77
2021/05/04 11:16:42;;;;;;;203.77;109.65;;;;;;;;;;5035861;28;20036;-77
2021/05/04 11:20:00;;;;;;;180.52;95.88;;;;;;;;;;5053032;28;20037;-77
2021/05/04 11:22:23;;;;;;;163.05;88.28;;;;;;;;;;5051919;28;20052;-77
2021/05/04 11:24:49;;;;;;;151.18;80.45;;;;;;;;;;5004245;28;20060;-77
2021/05/04 11:27:33;;;;;;;137.27;71.55;;;;;;;;;;5036411;28;20033;-77
2021/05/04 11:30:02;;;;;;;129.80;67.47;;;;;;;;;;5036301;28;20036;-77
2021/05/04 11:32:36;;;;;;;121.90;60.53;;;;;;;;;;5019892;28;20032;-77
2021/05/04 11:35:04;;;;;;;100.55;55.28;;;;;;;;;;5055350;28;20048;-77
2021/05/04 11:37:32;;;;;;;107.18;55.55;;;;;;;;;;5037516;28;20041;-77
2021/05/04 11:40:28;;;;;;;102.07;52.65;;;;;;;;;;5052583;28;20086;-77
2021/05/04 11:42:59;;;;;;;94.28;48.00;;;;;;;;;;5036330;28;20519;-77
2021/05/04 11:45:29;;;;;;;80.88;44.38;;;;;;;;;;5036705;28;20029;-77
2021/05/04 11:47:59;;;;;;;78.13;42.92;;;;;;;;;;5019378;28;20033;-77
2021/05/04 11:50:26;;;;;;;70.93;41.03;;;;;;;;;;5042352;28;20037;-77
2021/05/04 11:53:11;;;;;;;70.10;39.10;;;;;;;;;;5049545;28;20125;-77
2021/05/04 11:55:38;;;;;;;68.75;36.88;;;;;;;;;;5040155;28;20048;-77
2021/05/04 11:58:04;;;;;;;61.97;35.08;;;;;;;;;;5035165;28;20033;-77
2021/05/04 12:00:31;;;;;;;58.40;33.15;;;;;;;;;;5035012;28;20047;-78
2021/05/04 12:03:07;;;;;;;61.78;32.05;;;;;;;;;;5035425;28;20116;-77
2021/05/04 12:05:32;;;;;;;56.15;32.13;;;;;;;;;;5018313;28;20037;-78
2021/05/04 12:07:58;;;;;;;57.22;30.55;;;;;;;;;;5018683;28;20052;-77
2021/05/04 12:10:29;;;;;;;55.60;28.15;;;;;;;;;;5018324;28;20033;-78
2021/05/04 12:13:02;;;;;;;49.65;25.23;;;;;;;;;;5018187;28;20067;-79
2021/05/04 12:15:29;;;;;;;50.78;25.85;;;;;;;;;;5051823;28;20403;-78
2021/05/04 12:18:04;;;;;;;45.47;25.00;;;;;;;;;;5051636;28;20033;-77
2021/05/04 12:20:31;;;;;;;39.97;21.33;;;;;;;;;;5019109;28;20033;-77
2021/05/04 12:22:58;;;;;;;36.15;21.50;;;;;;;;;;5035054;28;20108;-77
2021/05/04 12:25:36;;;;;;;40.03;20.35;;;;;;;;;;5035139;28;20486;-79
2021/05/04 12:28:02;;;;;;;35.17;19.38;;;;;;;;;;5051336;28;20040;-77
2021/05/04 12:30:27;;;;;;;31.58;18.05;;;;;;;;;;5035171;28;20040;-78
2021/05/04 12:32:53;;;;;;;31.60;17.48;;;;;;;;;;5051220;28;20037;-78
2021/05/04 12:35:30;;;;;;;31.55;16.15;;;;;;;;;;5034624;28;20052;-79
2021/05/04 12:38:28;;;;;;;29.52;15.82;;;;;;;;;;5036282;28;20033;-79
2021/05/04 12:40:59;;;;;;;25.60;14.77;;;;;;;;;;5039618;28;20533;-78
2021/05/04 12:43:37;;;;;;;28.10;15.13;;;;;;;;;;5052077;28;20037;-79
2021/05/04 12:46:10;;;;;;;26.45;13.82;;;;;;;;;;5021171;28;20029;-79
2021/05/04 12:48:37;;;;;;;25.45;13.93;;;;;;;;;;5035105;28;20032;-79
2021/05/04 12:51:07;;;;;;;23.23;12.30;;;;;;;;;;5022665;28;20106;-79
2021/05/04 12:53:34;;;;;;;22.17;12.02;;;;;;;;;;5036314;28;20466;-80
2021/05/04 12:56:13;;;;;;;23.95;10.73;;;;;;;;;;5038209;28;20028;-79
2021/05/04 12:59:10;;;;;;;22.55;11.18;;;;;;;;;;5051169;28;20112;-79
2021/05/04 13:01:49;;;;;;;20.90;10.90;;;;;;;;;;5044917;28;20102;-80
2021/05/04 13:04:32;;;;;;;25.52;11.13;;;;;;;;;;5022444;28;20438;-79
2021/05/04 13:07:09;;;;;;;19.05;9.68;;;;;;;;;;5019583;28;20036;-79
2021/05/04 13:31:36;;;;;;;13.73;6.65;;;;;;;;;;5049712;28;20029;-79
2021/05/04 13:34:02;;;;;;;13.00;6.10;;;;;;;;;;5033887;28;20037;-79
2021/05/04 13:36:28;;;;;;;12.63;5.88;;;;;;;;;;5033944;28;20033;-79
2021/05/04 13:49:48;;;;;;;12.85;5.80;;;;;;;;;;5036084;28;20056;-78
2021/05/04 13:52:14;;;;;;;12.88;5.80;;;;;;;;;;5030519;28;20033;-79
2021/05/04 13:54:39;;;;;;;10.95;5.20;;;;;;;;;;5066388;28;20051;-79
2021/05/04 13:57:05;;;;;;;10.48;4.75;;;;;;;;;;5048498;28;20565;-78
2021/05/04 13:59:31;;;;;;;10.18;5.28;;;;;;;;;;5033274;28;20033;-79
2021/05/04 14:02:24;;;;;;;10.40;4.55;;;;;;;;;;5034349;28;20033;-79
2021/05/04 14:04:59;;;;;;;9.05;5.00;;;;;;;;;;5055671;28;20052;-78
2021/05/04 14:28:36;;;;;;;14.20;4.50;;;;;;;;;;5033654;28;20419;-81
2021/05/04 14:31:02;;;;;;;11.10;4.07;;;;;;;;;;5031515;28;20128;-81
2021/05/04 14:33:28;;;;;;;11.70;3.45;;;;;;;;;;5003820;28;20123;-80
2021/05/04 14:35:57;;;;;;;9.60;3.70;;;;;;;;;;5037870;28;20120;-80
2021/05/04 14:38:38;;;;;;;8.55;3.15;;;;;;;;;;5025560;28;20029;-80
2021/05/04 14:57:32;;;;;;;7.95;2.75;;;;;;;;;;5015969;28;20530;-80
2021/05/04 15:02:43;;;;;;;7.90;2.42;;;;;;;;;;5028589;28;20043;-81
2021/05/04 15:05:13;;;;;;;7.95;2.85;;;;;;;;;;5020153;28;20549;-81
2021/05/04 15:07:38;;;;;;;7.85;2.80;;;;;;;;;;5020349;28;20037;-81
2021/05/04 15:10:04;;;;;;;7.15;2.20;;;;;;;;;;5036551;28;20040;-81
2021/05/04 15:12:30;;;;;;;6.10;2.20;;;;;;;;;;5035961;28;20044;-81
2021/05/04 15:14:57;;;;;;;7.18;2.65;;;;;;;;;;5052704;28;20033;-81
2021/05/04 15:17:31;;;;;;;6.13;2.00;;;;;;;;;;5020096;28;20086;-81
2021/05/04 15:22:40;;;;;;;5.93;2.05;;;;;;;;;;5055397;28;20028;-81
2021/05/04 15:25:06;;;;;;;6.95;2.45;;;;;;;;;;5023193;28;20131;-81
2021/05/04 15:27:32;;;;;;;8.48;2.92;;;;;;;;;;5039125;28;20036;-81
2021/05/04 15:29:58;;;;;;;6.13;2.03;;;;;;;;;;5039665;28;20046;-81
2021/05/04 15:34:51;;;;;;;3.90;1.42;;;;;;;;;;5057102;28;20041;-80
2021/05/04 15:37:17;;;;;;;5.80;1.88;;;;;;;;;;5039339;28;20084;-81
2021/05/04 15:39:42;;;;;;;3.50;1.38;;;;;;;;;;5056188;28;20032;-81
2021/05/04 15:42:08;;;;;;;4.68;1.67;;;;;;;;;;5022038;28;20123;-81
2021/05/04 15:44:33;;;;;;;5.72;2.17;;;;;;;;;;5055329;28;20039;-81
2021/05/04 15:47:15;;;;;;;3.15;1.27;;;;;;;;;;5056375;28;20043;-81
2021/05/04 15:50:04;;;;;;;5.17;2.00;;;;;;;;;;5041214;28;20506;-81
2021/05/04 16:10:51;;;;;;;5.40;1.50;;;;;;;;;;5035179;28;20151;-81
2021/05/04 16:13:17;;;;;;;5.63;1.20;;;;;;;;;;5018523;28;20033;-80
2021/05/04 16:15:42;;;;;;;5.38;1.55;;;;;;;;;;5000652;28;20028;-80
2021/05/04 16:18:08;;;;;;;4.40;1.40;;;;;;;;;;5000307;28;20756;-80
2021/05/04 16:23:04;;;;;;;4.40;1.00;;;;;;;;;;5037343;28;20029;-80
2021/05/04 16:25:41;;;;;;;3.78;1.13;;;;;;;;;;5023036;28;20413;-80
2021/05/04 16:28:36;;;;;;;5.28;1.30;;;;;;;;;;5041453;28;20055;-80
2021/05/04 16:30:52;;;;;;;4.47;1.92;;;;;;;;;;5057375;28;20055;-78
2021/05/04 16:33:17;;;;;;;4.18;1.55;;;;;;;;;;5054875;28;20044;-78
2021/05/04 16:35:43;;;;;;;6.88;1.67;;;;;;;;;;5038100;28;20522;-77